createdAt,value
2018-04-17T00:00:30.014Z,0.00
2018-04-17T00:01:29.944Z,0.00
2018-04-17T00:02:29.861Z,0.00
2018-04-17T00:03:29.783Z,0.00
2018-04-17T00:04:29.706Z,0.00
2018-04-17T00:05:29.633Z,0.00
2018-04-17T00:06:29.551Z,0.00
2018-04-17T00:07:29.473Z,0.00
2018-04-17T00:08:29.395Z,0.00
2018-04-17T00:09:29.319Z,0.00
2018-04-17T00:10:29.241Z,0.00
2018-04-17T00:11:29.168Z,0.00
2018-04-17T00:12:29.090Z,0.00
2018-04-17T00:13:29.009Z,0.00
2018-04-17T00:14:28.936Z,0.00
2018-04-17T00:15:28.854Z,0.00
2018-04-17T00:16:28.777Z,0.00
2018-04-17T00:17:28.698Z,0.00
2018-04-17T00:18:28.623Z,0.00
2018-04-17T00:19:28.545Z,0.00
2018-04-17T00:20:28.466Z,0.00
2018-04-17T00:21:28.388Z,0.00
2018-04-17T00:22:28.313Z,0.00
2018-04-17T00:23:28.232Z,0.00
2018-04-17T00:24:28.157Z,0.00
2018-04-17T00:25:28.078Z,0.00
2018-04-17T00:26:28.001Z,0.00
2018-04-17T00:27:27.922Z,0.00
2018-04-17T00:28:27.845Z,0.00
2018-04-17T00:29:27.768Z,0.00
2018-04-17T00:30:27.689Z,0.00
2018-04-17T00:31:27.613Z,0.00
2018-04-17T00:32:27.591Z,0.00
2018-04-17T00:33:27.456Z,0.00
2018-04-17T00:34:27.378Z,0.00
2018-04-17T00:35:27.302Z,0.00
2018-04-17T00:36:27.232Z,0.00
2018-04-17T00:37:27.146Z,0.00
2018-04-17T00:38:27.065Z,0.00
2018-04-17T00:39:26.999Z,0.00
2018-04-17T00:40:26.913Z,0.00
2018-04-17T00:41:26.839Z,0.00
2018-04-17T00:42:26.756Z,0.00
2018-04-17T00:43:26.680Z,0.00
2018-04-17T00:44:26.603Z,0.00
2018-04-17T00:45:26.523Z,0.00
2018-04-17T00:46:26.452Z,0.00
2018-04-17T00:47:26.372Z,0.00
2018-04-17T00:48:26.291Z,0.00
2018-04-17T00:49:26.213Z,0.00
2018-04-17T00:50:26.141Z,0.00
2018-04-17T00:51:26.057Z,0.00
2018-04-17T00:52:25.981Z,0.00
2018-04-17T00:53:25.901Z,0.00
2018-04-17T00:54:25.826Z,0.00
2018-04-17T00:55:25.747Z,0.00
2018-04-17T00:56:25.670Z,0.00
2018-04-17T00:57:25.592Z,0.00
2018-04-17T00:58:25.514Z,0.00
2018-04-17T00:59:25.435Z,0.00
2018-04-17T01:00:25.358Z,0.00
2018-04-17T01:01:25.282Z,0.00
2018-04-17T01:02:25.199Z,0.00
2018-04-17T01:03:25.125Z,0.00
2018-04-17T01:04:25.057Z,0.00
2018-04-17T01:05:24.969Z,0.00
2018-04-17T01:06:24.891Z,0.00
2018-04-17T01:07:24.813Z,0.00
2018-04-17T01:08:24.736Z,0.00
2018-04-17T01:09:24.662Z,0.00
2018-04-17T01:10:24.579Z,0.00
2018-04-17T01:11:24.500Z,0.00
2018-04-17T01:12:24.425Z,0.00
2018-04-17T01:13:24.348Z,0.00
2018-04-17T01:14:24.264Z,0.00
2018-04-17T01:15:24.190Z,0.00
2018-04-17T01:16:24.114Z,0.00
2018-04-17T01:17:24.033Z,0.00
2018-04-17T01:18:23.955Z,0.00
2018-04-17T01:19:23.884Z,0.00
2018-04-17T01:20:23.800Z,0.00
2018-04-17T01:21:23.739Z,0.00
2018-04-17T01:22:23.645Z,0.00
2018-04-17T01:23:23.566Z,0.00
2018-04-17T01:24:23.489Z,0.00
2018-04-17T01:25:23.408Z,0.00
2018-04-17T01:26:23.330Z,0.00
2018-04-17T01:27:23.253Z,0.00
2018-04-17T01:28:23.173Z,0.00
2018-04-17T01:29:23.094Z,0.00
2018-04-17T01:30:23.017Z,0.00
2018-04-17T01:31:22.942Z,0.00
2018-04-17T01:32:22.862Z,0.00
2018-04-17T01:33:22.782Z,0.00
2018-04-17T01:34:22.704Z,0.00
2018-04-17T01:35:22.626Z,0.00
2018-04-17T01:36:22.548Z,0.00
2018-04-17T01:37:22.470Z,0.00
2018-04-17T01:38:22.392Z,0.00
2018-04-17T01:39:22.313Z,0.00
2018-04-17T01:40:22.233Z,0.00
2018-04-17T01:41:22.156Z,0.00
2018-04-17T01:42:22.079Z,0.00
2018-04-17T01:43:22.002Z,0.00
2018-04-17T01:44:21.920Z,0.00
2018-04-17T01:45:21.846Z,0.00
2018-04-17T01:46:21.766Z,0.00
2018-04-17T01:47:21.687Z,0.00
2018-04-17T01:48:21.615Z,0.00
2018-04-17T01:49:21.531Z,0.00
2018-04-17T01:50:21.458Z,0.00
2018-04-17T01:51:21.379Z,0.00
2018-04-17T01:52:21.300Z,0.00
2018-04-17T01:53:21.219Z,0.00
2018-04-17T01:54:21.139Z,0.00
2018-04-17T01:55:21.063Z,0.00
2018-04-17T01:56:20.990Z,0.00
2018-04-17T01:57:20.907Z,0.00
2018-04-17T01:58:20.827Z,0.00
2018-04-17T01:59:20.749Z,0.00
2018-04-17T02:00:20.670Z,0.00
2018-04-17T02:01:20.593Z,0.00
2018-04-17T02:02:20.517Z,0.00
2018-04-17T02:03:20.435Z,0.00
2018-04-17T02:04:20.359Z,0.00
2018-04-17T02:05:20.280Z,0.00
2018-04-17T02:06:20.200Z,0.00
2018-04-17T02:07:20.122Z,0.00
2018-04-17T02:08:20.046Z,0.00
2018-04-17T02:09:19.967Z,0.00
2018-04-17T02:10:19.886Z,0.00
2018-04-17T02:11:19.809Z,0.00
2018-04-17T02:12:19.734Z,0.00
2018-04-17T02:13:19.654Z,0.00
2018-04-17T02:14:19.574Z,0.00
2018-04-17T02:15:19.500Z,0.00
2018-04-17T02:16:19.418Z,0.00
2018-04-17T02:17:19.343Z,0.00
2018-04-17T02:18:19.256Z,0.00
2018-04-17T02:19:19.182Z,0.00
2018-04-17T02:20:19.100Z,0.00
2018-04-17T02:21:19.023Z,0.00
2018-04-17T02:22:18.943Z,0.00
2018-04-17T02:23:18.867Z,0.00
2018-04-17T02:24:18.786Z,0.00
2018-04-17T02:25:18.709Z,0.00
2018-04-17T02:26:18.634Z,0.00
2018-04-17T02:27:18.556Z,0.00
2018-04-17T02:28:18.474Z,0.00
2018-04-17T02:29:18.394Z,0.00
2018-04-17T02:30:18.327Z,0.00
2018-04-17T02:31:18.250Z,0.00
2018-04-17T02:32:18.202Z,0.00
2018-04-17T02:33:18.086Z,0.00
2018-04-17T02:34:18.001Z,0.00
2018-04-17T02:35:17.926Z,0.00
2018-04-17T02:36:17.846Z,0.00
2018-04-17T02:37:17.769Z,0.00
2018-04-17T02:38:17.692Z,0.00
2018-04-17T02:39:17.610Z,0.00
2018-04-17T02:40:17.537Z,0.00
2018-04-17T02:41:17.459Z,0.00
2018-04-17T02:42:17.376Z,0.00
2018-04-17T02:43:17.296Z,0.00
2018-04-17T02:44:17.219Z,0.00
2018-04-17T02:45:17.139Z,0.00
2018-04-17T02:46:17.058Z,0.00
2018-04-17T02:47:16.984Z,0.00
2018-04-17T02:48:16.900Z,0.00
2018-04-17T02:49:16.826Z,0.00
2018-04-17T02:50:16.745Z,0.00
2018-04-17T02:51:16.664Z,0.00
2018-04-17T02:52:16.588Z,0.00
2018-04-17T02:53:16.509Z,0.00
2018-04-17T02:54:16.433Z,0.00
2018-04-17T02:55:16.352Z,0.00
2018-04-17T02:56:16.275Z,0.00
2018-04-17T02:57:16.195Z,0.00
2018-04-17T02:58:16.113Z,0.00
2018-04-17T02:59:16.034Z,0.00
2018-04-17T03:00:15.958Z,0.00
2018-04-17T03:01:15.885Z,0.00
2018-04-17T03:02:15.807Z,0.00
2018-04-17T03:03:15.721Z,0.00
2018-04-17T03:04:15.642Z,0.00
2018-04-17T03:05:15.567Z,0.00
2018-04-17T03:06:15.489Z,0.00
2018-04-17T03:07:15.408Z,0.00
2018-04-17T03:08:15.329Z,0.00
2018-04-17T03:09:15.247Z,0.00
2018-04-17T03:10:15.201Z,0.00
2018-04-17T03:11:15.090Z,0.00
2018-04-17T03:12:15.011Z,0.00
2018-04-17T03:13:14.936Z,0.00
2018-04-17T03:14:14.856Z,0.00
2018-04-17T03:15:14.777Z,0.00
2018-04-17T03:16:14.697Z,0.00
2018-04-17T03:17:14.615Z,0.00
2018-04-17T03:18:14.537Z,0.00
2018-04-17T03:19:14.462Z,0.00
2018-04-17T03:20:14.382Z,0.00
2018-04-17T03:21:14.302Z,0.00
2018-04-17T03:22:14.221Z,0.00
2018-04-17T03:23:14.144Z,0.00
2018-04-17T03:24:14.066Z,0.00
2018-04-17T03:25:13.987Z,0.00
2018-04-17T03:26:13.909Z,0.00
2018-04-17T03:27:13.829Z,0.00
2018-04-17T03:28:13.750Z,0.00
2018-04-17T03:29:13.671Z,0.00
2018-04-17T03:30:13.591Z,0.00
2018-04-17T03:31:13.516Z,0.00
2018-04-17T03:32:13.436Z,0.00
2018-04-17T03:33:13.357Z,0.00
2018-04-17T03:34:13.275Z,0.00
2018-04-17T03:35:13.197Z,0.00
2018-04-17T03:36:13.119Z,0.00
2018-04-17T03:37:13.039Z,0.00
2018-04-17T03:38:12.962Z,0.00
2018-04-17T03:39:12.885Z,0.00
2018-04-17T03:40:12.798Z,0.00
2018-04-17T03:41:12.725Z,0.00
2018-04-17T03:42:12.644Z,0.00
2018-04-17T03:43:12.564Z,0.00
2018-04-17T03:44:12.486Z,0.00
2018-04-17T03:45:12.410Z,0.00
2018-04-17T03:46:12.328Z,0.00
2018-04-17T03:47:12.251Z,0.00
2018-04-17T03:48:12.170Z,0.00
2018-04-17T03:49:12.090Z,0.00
2018-04-17T03:50:12.008Z,0.00
2018-04-17T03:51:11.929Z,0.00
2018-04-17T03:52:11.853Z,0.00
2018-04-17T03:53:11.777Z,0.00
2018-04-17T03:54:11.692Z,0.00
2018-04-17T03:55:11.612Z,0.00
2018-04-17T03:56:11.538Z,0.00
2018-04-17T03:57:11.456Z,0.00
2018-04-17T03:58:11.379Z,0.00
2018-04-17T03:59:11.298Z,0.00
2018-04-17T04:00:11.238Z,0.00
2018-04-17T04:01:11.141Z,0.00
2018-04-17T04:02:11.056Z,0.00
2018-04-17T04:03:10.981Z,0.00
2018-04-17T04:04:10.902Z,0.00
2018-04-17T04:05:10.823Z,4.00
2018-04-17T04:06:10.746Z,4.00
2018-04-17T04:07:10.664Z,4.00
2018-04-17T04:08:10.585Z,0.00
2018-04-17T04:09:10.507Z,4.00
2018-04-17T04:10:10.426Z,8.00
2018-04-17T04:11:10.347Z,4.00
2018-04-17T04:12:10.269Z,4.00
2018-04-17T04:13:10.189Z,8.00
2018-04-17T04:14:10.113Z,12.00
2018-04-17T04:15:10.031Z,12.00
2018-04-17T04:16:09.972Z,16.00
2018-04-17T04:17:09.873Z,16.00
2018-04-17T04:18:09.792Z,16.00
2018-04-17T04:19:09.715Z,20.00
2018-04-17T04:20:09.636Z,24.00
2018-04-17T04:21:09.557Z,28.00
2018-04-17T04:22:09.477Z,32.00
2018-04-17T04:23:09.397Z,36.00
2018-04-17T04:24:09.317Z,44.00
2018-04-17T04:25:09.240Z,52.00
2018-04-17T04:26:09.162Z,56.00
2018-04-17T04:27:09.084Z,68.00
2018-04-17T04:28:09.001Z,72.00
2018-04-17T04:29:08.923Z,80.00
2018-04-17T04:30:08.847Z,92.00
2018-04-17T04:31:08.763Z,104.00
2018-04-17T04:32:08.686Z,112.00
2018-04-17T04:33:08.604Z,128.00
2018-04-17T04:34:08.523Z,136.00
2018-04-17T04:35:08.445Z,152.00
2018-04-17T04:36:08.372Z,164.00
2018-04-17T04:37:08.287Z,180.00
2018-04-17T04:38:08.209Z,192.00
2018-04-17T04:39:08.129Z,208.00
2018-04-17T04:40:08.052Z,224.00
2018-04-17T04:41:07.971Z,240.00
2018-04-17T04:42:07.892Z,256.00
2018-04-17T04:43:07.815Z,276.00
2018-04-17T04:44:07.737Z,288.00
2018-04-17T04:45:07.655Z,308.00
2018-04-17T04:46:07.575Z,328.00
2018-04-17T04:47:07.495Z,348.00
2018-04-17T04:48:07.417Z,364.00
2018-04-17T04:49:07.340Z,384.00
2018-04-17T04:50:07.258Z,408.00
2018-04-17T04:51:07.181Z,428.00
2018-04-17T04:52:07.141Z,448.00
2018-04-17T04:53:07.025Z,468.00
2018-04-17T04:54:06.946Z,488.00
2018-04-17T04:55:06.908Z,512.00
2018-04-17T04:56:06.783Z,532.00
2018-04-17T04:57:06.703Z,556.00
2018-04-17T04:58:06.626Z,576.00
2018-04-17T04:59:06.542Z,596.00
2018-04-17T05:00:06.464Z,620.00
2018-04-17T05:01:06.386Z,644.00
2018-04-17T05:02:06.306Z,664.00
2018-04-17T05:03:06.229Z,688.00
2018-04-17T05:04:06.153Z,712.00
2018-04-17T05:05:06.070Z,732.00
2018-04-17T05:06:05.990Z,748.00
2018-04-17T05:07:05.913Z,772.00
2018-04-17T05:08:05.831Z,800.00
2018-04-17T05:09:05.753Z,824.00
2018-04-17T05:10:05.676Z,848.00
2018-04-17T05:11:05.593Z,868.00
2018-04-17T05:12:05.515Z,892.00
2018-04-17T05:13:05.445Z,924.00
2018-04-17T05:14:05.356Z,952.00
2018-04-17T05:15:05.279Z,980.00
2018-04-17T05:16:05.203Z,1000.00
2018-04-17T05:17:05.120Z,1020.00
2018-04-17T05:18:05.042Z,1036.00
2018-04-17T05:19:04.961Z,1068.00
2018-04-17T05:20:04.883Z,1100.00
2018-04-17T05:21:04.811Z,1124.00
2018-04-17T05:22:04.724Z,1128.00
2018-04-17T05:23:04.645Z,1148.00
2018-04-17T05:24:04.571Z,1172.00
2018-04-17T05:25:04.486Z,1196.00
2018-04-17T05:26:04.407Z,1220.00
2018-04-17T05:27:04.329Z,1260.00
2018-04-17T05:28:04.248Z,1304.00
2018-04-17T05:29:04.172Z,1308.00
2018-04-17T05:30:04.091Z,1316.00
2018-04-17T05:31:04.011Z,1336.00
2018-04-17T05:32:03.931Z,1356.00
2018-04-17T05:33:03.853Z,1376.00
2018-04-17T05:34:03.780Z,1400.00
2018-04-17T05:35:03.697Z,1420.00
2018-04-17T05:36:03.616Z,1440.00
2018-04-17T05:37:03.538Z,1468.00
2018-04-17T05:38:03.462Z,1496.00
2018-04-17T05:39:03.381Z,1520.00
2018-04-17T05:40:03.303Z,1548.00
2018-04-17T05:41:03.223Z,1616.00
2018-04-17T05:42:03.142Z,1780.00
2018-04-17T05:43:03.064Z,1944.00
2018-04-17T05:44:02.983Z,1860.00
2018-04-17T05:45:02.909Z,1652.00
2018-04-17T05:46:02.827Z,1616.00
2018-04-17T05:47:02.749Z,1636.00
2018-04-17T05:48:02.670Z,1652.00
2018-04-17T05:49:02.590Z,1664.00
2018-04-17T05:50:02.515Z,1680.00
2018-04-17T05:51:02.465Z,1700.00
2018-04-17T05:52:02.366Z,1716.00
2018-04-17T05:53:02.276Z,1732.00
2018-04-17T05:54:02.198Z,1748.00
2018-04-17T05:55:02.119Z,1760.00
2018-04-17T05:56:02.040Z,1780.00
2018-04-17T05:57:01.961Z,1800.00
2018-04-17T05:58:01.886Z,1828.00
2018-04-17T05:59:01.807Z,1848.00
2018-04-17T06:00:01.728Z,1896.00
2018-04-17T06:01:01.649Z,2140.00
2018-04-17T06:02:01.575Z,2544.00
2018-04-17T06:03:01.498Z,2420.00
2018-04-17T06:04:01.414Z,2040.00
2018-04-17T06:05:01.333Z,2008.00
2018-04-17T06:06:01.254Z,2048.00
2018-04-17T06:07:01.176Z,2108.00
2018-04-17T06:08:01.106Z,2088.00
2018-04-17T06:09:01.017Z,2020.00
2018-04-17T06:10:00.942Z,2040.00
2018-04-17T06:11:00.879Z,2060.00
2018-04-17T06:12:00.783Z,2084.00
2018-04-17T06:13:00.706Z,2108.00
2018-04-17T06:14:00.629Z,2128.00
2018-04-17T06:15:00.549Z,2144.00
2018-04-17T06:16:00.478Z,2140.00
2018-04-17T06:17:00.394Z,2152.00
2018-04-17T06:18:00.315Z,2164.00
2018-04-17T06:19:00.236Z,2176.00
2018-04-17T06:20:00.160Z,2188.00
2018-04-17T06:21:00.086Z,2208.00
2018-04-17T06:21:59.998Z,2224.00
2018-04-17T06:22:59.926Z,2244.00
2018-04-17T06:23:59.849Z,2260.00
2018-04-17T06:24:59.770Z,2276.00
2018-04-17T06:25:59.711Z,2292.00
2018-04-17T06:26:59.611Z,2312.00
2018-04-17T06:27:59.537Z,2328.00
2018-04-17T06:28:59.464Z,2340.00
2018-04-17T06:29:59.381Z,2360.00
2018-04-17T06:30:59.303Z,2376.00
2018-04-17T06:31:59.227Z,2396.00
2018-04-17T06:32:59.148Z,2408.00
2018-04-17T06:33:59.073Z,2424.00
2018-04-17T06:34:59.017Z,2440.00
2018-04-17T06:35:58.918Z,2456.00
2018-04-17T06:36:58.832Z,2492.00
2018-04-17T06:37:58.760Z,2504.00
2018-04-17T06:38:58.682Z,2516.00
2018-04-17T06:39:58.605Z,2528.00
2018-04-17T06:40:58.534Z,2548.00
2018-04-17T06:41:58.516Z,2576.00
2018-04-17T06:42:58.374Z,2596.00
2018-04-17T06:43:58.296Z,2600.00
2018-04-17T06:44:58.218Z,2616.00
2018-04-17T06:45:58.138Z,2628.00
2018-04-17T06:46:58.061Z,2648.00
2018-04-17T06:47:57.987Z,2664.00
2018-04-17T06:48:57.907Z,2696.00
2018-04-17T06:49:57.828Z,2716.00
2018-04-17T06:50:57.753Z,2744.00
2018-04-17T06:51:57.671Z,2772.00
2018-04-17T06:52:57.598Z,2792.00
2018-04-17T06:53:57.521Z,2812.00
2018-04-17T06:54:57.447Z,2844.00
2018-04-17T06:55:57.367Z,2860.00
2018-04-17T06:56:57.291Z,2880.00
2018-04-17T06:57:57.267Z,2908.00
2018-04-17T06:58:57.135Z,2924.00
2018-04-17T06:59:57.061Z,2952.00
2018-04-17T07:00:56.984Z,2976.00
2018-04-17T07:01:56.904Z,2996.00
2018-04-17T07:02:56.830Z,3024.00
2018-04-17T07:03:56.751Z,3036.00
2018-04-17T07:04:56.672Z,3064.00
2018-04-17T07:05:56.591Z,3092.00
2018-04-17T07:06:56.520Z,3124.00
2018-04-17T07:07:56.445Z,3156.00
2018-04-17T07:08:56.371Z,3180.00
2018-04-17T07:09:56.289Z,3208.00
2018-04-17T07:10:56.213Z,3228.00
2018-04-17T07:11:56.140Z,3260.00
2018-04-17T07:12:56.060Z,3280.00
2018-04-17T07:13:55.982Z,3312.00
2018-04-17T07:14:55.902Z,3328.00
2018-04-17T07:15:55.833Z,3348.00
2018-04-17T07:16:55.808Z,3376.00
2018-04-17T07:17:55.678Z,3400.00
2018-04-17T07:18:55.601Z,3444.00
2018-04-17T07:19:55.527Z,3480.00
2018-04-17T07:20:55.487Z,3516.00
2018-04-17T07:21:55.371Z,3556.00
2018-04-17T07:22:55.296Z,3596.00
2018-04-17T07:23:55.220Z,3628.00
2018-04-17T07:24:55.149Z,3656.00
2018-04-17T07:25:55.067Z,3692.00
2018-04-17T07:26:54.994Z,3732.00
2018-04-17T07:27:54.918Z,3768.00
2018-04-17T07:28:54.847Z,3804.00
2018-04-17T07:29:54.780Z,3812.00
2018-04-17T07:30:54.682Z,3828.00
2018-04-17T07:31:54.610Z,3884.00
2018-04-17T07:32:54.535Z,3912.00
2018-04-17T07:33:54.462Z,3940.00
2018-04-17T07:34:54.383Z,3956.00
2018-04-17T07:35:54.305Z,3924.00
2018-04-17T07:36:54.244Z,3936.00
2018-04-17T07:37:54.162Z,3952.00
2018-04-17T07:38:54.080Z,3956.00
2018-04-17T07:39:54.004Z,3948.00
2018-04-17T07:40:53.930Z,3956.00
2018-04-17T07:41:53.866Z,3976.00
2018-04-17T07:42:53.785Z,3976.00
2018-04-17T07:43:53.702Z,3972.00
2018-04-17T07:44:53.628Z,3988.00
2018-04-17T07:45:53.552Z,4016.00
2018-04-17T07:46:53.474Z,4044.00
2018-04-17T07:47:53.403Z,4072.00
2018-04-17T07:48:53.326Z,4116.00
2018-04-17T07:49:53.247Z,4180.00
2018-04-17T07:50:53.177Z,4252.00
2018-04-17T07:51:53.103Z,4332.00
2018-04-17T07:52:53.026Z,4392.00
2018-04-17T07:53:52.947Z,4520.00
2018-04-17T07:54:52.872Z,4580.00
2018-04-17T07:55:52.797Z,4756.00
2018-04-17T07:56:52.725Z,6120.00
2018-04-17T07:57:52.649Z,10096.00
2018-04-17T07:58:52.574Z,12376.00
2018-04-17T07:59:52.497Z,11204.00
2018-04-17T08:00:52.422Z,12916.00
2018-04-17T08:01:52.348Z,10156.00
2018-04-17T08:02:52.275Z,9892.00
2018-04-17T08:03:52.200Z,16256.00
2018-04-17T08:04:52.138Z,15840.00
2018-04-17T08:05:52.048Z,14016.00
2018-04-17T08:06:51.976Z,14340.00
2018-04-17T08:07:51.900Z,9936.00
2018-04-17T08:08:51.827Z,10636.00
2018-04-17T08:09:51.755Z,9972.00
2018-04-17T08:10:51.679Z,9148.00
2018-04-17T08:11:51.673Z,9636.00
2018-04-17T08:12:51.531Z,8124.00
2018-04-17T08:13:51.458Z,5584.00
2018-04-17T08:14:51.384Z,6244.00
2018-04-17T08:15:51.310Z,5736.00
2018-04-17T08:16:51.241Z,8280.00
2018-04-17T08:17:51.167Z,12152.00
2018-04-17T08:18:51.089Z,16192.00
2018-04-17T08:19:51.013Z,14296.00
2018-04-17T08:20:50.944Z,6628.00
2018-04-17T08:21:50.893Z,6912.00
2018-04-17T08:22:50.795Z,8028.00
2018-04-17T08:23:50.723Z,11468.00
2018-04-17T08:24:50.650Z,10744.00
2018-04-17T08:25:50.574Z,9136.00
2018-04-17T08:26:50.512Z,9048.00
2018-04-17T08:27:50.432Z,8028.00
2018-04-17T08:28:50.354Z,6572.00
2018-04-17T08:29:50.286Z,7788.00
2018-04-17T08:30:50.211Z,9892.00
2018-04-17T08:31:50.146Z,13120.00
2018-04-17T08:32:50.067Z,13280.00
2018-04-17T08:33:50.000Z,11676.00
2018-04-17T08:34:49.924Z,12360.00
2018-04-17T08:35:49.849Z,15416.00
2018-04-17T08:36:49.797Z,15640.00
2018-04-17T08:37:49.703Z,12544.00
2018-04-17T08:38:49.631Z,9240.00
2018-04-17T08:39:49.559Z,8916.00
2018-04-17T08:40:49.489Z,9500.00
2018-04-17T08:41:49.416Z,9556.00
2018-04-17T08:42:49.392Z,7696.00
2018-04-17T08:43:49.273Z,8600.00
2018-04-17T08:44:49.197Z,9568.00
2018-04-17T08:45:49.130Z,7948.00
2018-04-17T08:46:49.066Z,7984.00
2018-04-17T08:47:48.990Z,8164.00
2018-04-17T08:48:48.917Z,8664.00
2018-04-17T08:49:48.844Z,10300.00
2018-04-17T08:50:48.779Z,9900.00
2018-04-17T08:51:48.705Z,13000.00
2018-04-17T08:52:48.635Z,13244.00
2018-04-17T08:53:48.562Z,15372.00
2018-04-17T08:54:48.492Z,19872.00
2018-04-17T08:55:48.421Z,13264.00
2018-04-17T08:56:48.350Z,20224.00
2018-04-17T08:57:48.278Z,41152.00
2018-04-17T08:58:48.210Z,50560.00
2018-04-17T08:59:48.140Z,53824.00
2018-04-17T09:00:48.069Z,55648.00
2018-04-17T09:01:47.999Z,49280.00
2018-04-17T09:02:47.930Z,57280.00
2018-04-17T09:03:47.861Z,56512.00
2018-04-17T09:04:47.792Z,44032.00
2018-04-17T09:05:47.721Z,31008.00
2018-04-17T09:06:47.653Z,21856.00
2018-04-17T09:07:47.585Z,21696.00
2018-04-17T09:08:47.516Z,30848.00
2018-04-17T09:09:47.446Z,43872.00
2018-04-17T09:10:47.380Z,52576.00
2018-04-17T09:11:47.387Z,56288.00
2018-04-17T09:12:47.247Z,50176.00
2018-04-17T09:13:47.178Z,52672.00
2018-04-17T09:14:47.111Z,59264.00
2018-04-17T09:15:47.042Z,58208.00
2018-04-17T09:16:46.974Z,60288.00
2018-04-17T09:17:46.916Z,60544.00
2018-04-17T09:18:46.842Z,59744.00
2018-04-17T09:19:46.777Z,57696.00
2018-04-17T09:20:46.710Z,59360.00
2018-04-17T09:21:46.644Z,58176.00
2018-04-17T09:22:46.579Z,58560.00
2018-04-17T09:23:46.514Z,58144.00
2018-04-17T09:24:46.452Z,56544.00
2018-04-17T09:25:46.403Z,58272.00
2018-04-17T09:26:46.324Z,60608.00
2018-04-17T09:27:46.264Z,60256.00
2018-04-17T09:28:46.197Z,61184.00
2018-04-17T09:29:46.133Z,62048.00
2018-04-17T09:30:46.072Z,61152.00
2018-04-17T09:31:46.009Z,59968.00
2018-04-17T09:32:45.947Z,56896.00
2018-04-17T09:33:45.881Z,56864.00
2018-04-17T09:34:45.824Z,57920.00
2018-04-17T09:35:45.765Z,60384.00
2018-04-17T09:36:45.702Z,61568.00
2018-04-17T09:37:45.644Z,63488.00
2018-04-17T09:38:45.579Z,63296.00
2018-04-17T09:39:45.523Z,62688.00
2018-04-17T09:40:45.461Z,60576.00
2018-04-17T09:41:45.401Z,61504.00
2018-04-17T09:42:45.367Z,63296.00
2018-04-17T09:43:45.284Z,63008.00
2018-04-17T09:44:45.222Z,62176.00
2018-04-17T09:45:45.164Z,61984.00
2018-04-17T09:46:45.141Z,60864.00
2018-04-17T09:47:45.047Z,60448.00
2018-04-17T09:48:44.986Z,59936.00
2018-04-17T09:49:44.929Z,60480.00
2018-04-17T09:50:44.868Z,60640.00
2018-04-17T09:51:44.810Z,59552.00
2018-04-17T09:52:44.746Z,59392.00
2018-04-17T09:53:44.692Z,58144.00
2018-04-17T09:54:44.631Z,55744.00
2018-04-17T09:55:44.573Z,54720.00
2018-04-17T09:56:44.519Z,52256.00
2018-04-17T09:57:44.459Z,50624.00
2018-04-17T09:58:44.399Z,38656.00
2018-04-17T09:59:44.341Z,52320.00
2018-04-17T10:00:44.281Z,53792.00
2018-04-17T10:01:44.225Z,44544.00
2018-04-17T10:02:44.165Z,11704.00
2018-04-17T10:03:44.106Z,12348.00
2018-04-17T10:04:44.047Z,35200.00
2018-04-17T10:05:43.986Z,52256.00
2018-04-17T10:06:43.930Z,38176.00
2018-04-17T10:07:43.871Z,32544.00
2018-04-17T10:08:43.848Z,11748.00
2018-04-17T10:09:43.747Z,9716.00
2018-04-17T10:10:43.691Z,9816.00
2018-04-17T10:11:43.629Z,11160.00
2018-04-17T10:12:43.573Z,28000.00
2018-04-17T10:13:43.526Z,15824.00
2018-04-17T10:14:43.450Z,18816.00
2018-04-17T10:15:43.401Z,13680.00
2018-04-17T10:16:43.321Z,18080.00
2018-04-17T10:17:43.261Z,51616.00
2018-04-17T10:18:43.196Z,53440.00
2018-04-17T10:19:43.137Z,54560.00
2018-04-17T10:20:43.072Z,54272.00
2018-04-17T10:21:43.004Z,53088.00
2018-04-17T10:22:42.944Z,57088.00
2018-04-17T10:23:42.880Z,57664.00
2018-04-17T10:24:42.817Z,61664.00
2018-04-17T10:25:42.755Z,59648.00
2018-04-17T10:26:42.693Z,50304.00
2018-04-17T10:27:42.631Z,49696.00
2018-04-17T10:28:42.572Z,48640.00
2018-04-17T10:29:42.509Z,40384.00
2018-04-17T10:30:42.446Z,42560.00
2018-04-17T10:31:42.392Z,47008.00
2018-04-17T10:32:42.327Z,47456.00
2018-04-17T10:33:42.262Z,44992.00
2018-04-17T10:34:42.204Z,42112.00
2018-04-17T10:35:42.136Z,32832.00
2018-04-17T10:36:42.083Z,38528.00
2018-04-17T10:37:42.032Z,46432.00
2018-04-17T10:38:41.961Z,44736.00
2018-04-17T10:39:41.919Z,37344.00
2018-04-17T10:40:41.839Z,32864.00
2018-04-17T10:41:41.779Z,31520.00
2018-04-17T10:42:41.762Z,28448.00
2018-04-17T10:43:41.660Z,27808.00
2018-04-17T10:44:41.606Z,21504.00
2018-04-17T10:45:41.539Z,19968.00
2018-04-17T10:46:41.476Z,27936.00
2018-04-17T10:47:41.420Z,32192.00
2018-04-17T10:48:41.357Z,27264.00
2018-04-17T10:49:41.295Z,38816.00
2018-04-17T10:50:41.236Z,49760.00
2018-04-17T10:51:41.173Z,50880.00
2018-04-17T10:52:41.113Z,51328.00
2018-04-17T10:53:41.051Z,48736.00
2018-04-17T10:54:40.993Z,37632.00
2018-04-17T10:55:40.981Z,26016.00
2018-04-17T10:56:40.866Z,29472.00
2018-04-17T10:57:40.804Z,29952.00
2018-04-17T10:58:40.741Z,32256.00
2018-04-17T10:59:40.728Z,27168.00
2018-04-17T11:00:40.619Z,20512.00
2018-04-17T11:01:40.557Z,17136.00
2018-04-17T11:02:40.496Z,22592.00
2018-04-17T11:03:40.436Z,32256.00
2018-04-17T11:04:40.377Z,37728.00
2018-04-17T11:05:40.310Z,40384.00
2018-04-17T11:06:40.244Z,48544.00
2018-04-17T11:07:40.186Z,51424.00
2018-04-17T11:08:40.125Z,52512.00
2018-04-17T11:09:40.059Z,44480.00
2018-04-17T11:10:39.996Z,48160.00
2018-04-17T11:11:39.934Z,50144.00
2018-04-17T11:12:39.871Z,39552.00
2018-04-17T11:13:39.811Z,20832.00
2018-04-17T11:14:39.746Z,15304.00
2018-04-17T11:15:39.685Z,30176.00
2018-04-17T11:16:39.625Z,48288.00
2018-04-17T11:17:39.561Z,57184.00
2018-04-17T11:18:39.499Z,42816.00
2018-04-17T11:19:39.441Z,32768.00
2018-04-17T11:20:39.372Z,41024.00
2018-04-17T11:21:39.329Z,47392.00
2018-04-17T11:22:39.277Z,48864.00
2018-04-17T11:23:39.188Z,44928.00
2018-04-17T11:24:39.145Z,38720.00
2018-04-17T11:25:39.063Z,43136.00
2018-04-17T11:26:39.001Z,43648.00
2018-04-17T11:27:38.938Z,46592.00
2018-04-17T11:28:38.876Z,51008.00
2018-04-17T11:29:38.813Z,54656.00
2018-04-17T11:30:38.748Z,58752.00
2018-04-17T11:31:38.690Z,61728.00
2018-04-17T11:32:38.630Z,61440.00
2018-04-17T11:33:38.565Z,60096.00
2018-04-17T11:34:38.587Z,60512.00
2018-04-17T11:35:38.446Z,58112.00
2018-04-17T11:36:38.388Z,55936.00
2018-04-17T11:37:38.320Z,60160.00
2018-04-17T11:38:38.259Z,52512.00
2018-04-17T11:39:38.203Z,49120.00
2018-04-17T11:40:38.137Z,42432.00
2018-04-17T11:41:38.078Z,49248.00
2018-04-17T11:42:38.017Z,48608.00
2018-04-17T11:43:37.958Z,26016.00
2018-04-17T11:44:37.897Z,13360.00
2018-04-17T11:45:37.841Z,38496.00
2018-04-17T11:46:37.777Z,48704.00
2018-04-17T11:47:37.720Z,38976.00
2018-04-17T11:48:37.666Z,32992.00
2018-04-17T11:49:37.596Z,30848.00
2018-04-17T11:50:37.537Z,24960.00
2018-04-17T11:51:37.478Z,43488.00
2018-04-17T11:52:37.417Z,53888.00
2018-04-17T11:53:37.355Z,50848.00
2018-04-17T11:54:37.294Z,41760.00
2018-04-17T11:55:37.232Z,28512.00
2018-04-17T11:56:37.172Z,22880.00
2018-04-17T11:57:37.113Z,21888.00
2018-04-17T11:58:37.053Z,19488.00
2018-04-17T11:59:36.990Z,29664.00
2018-04-17T12:00:36.926Z,50464.00
2018-04-17T12:01:36.873Z,49536.00
2018-04-17T12:02:36.806Z,49088.00
2018-04-17T12:03:36.746Z,21504.00
2018-04-17T12:04:36.684Z,11560.00
2018-04-17T12:05:36.621Z,12640.00
2018-04-17T12:06:36.559Z,34848.00
2018-04-17T12:07:36.499Z,52256.00
2018-04-17T12:08:36.435Z,45920.00
2018-04-17T12:09:36.369Z,40224.00
2018-04-17T12:10:36.311Z,40032.00
2018-04-17T12:11:36.249Z,42816.00
2018-04-17T12:12:36.190Z,57920.00
2018-04-17T12:13:36.122Z,52384.00
2018-04-17T12:14:36.077Z,50880.00
2018-04-17T12:15:36.000Z,49376.00
2018-04-17T12:16:35.934Z,44736.00
2018-04-17T12:17:35.871Z,24800.00
2018-04-17T12:18:35.811Z,41376.00
2018-04-17T12:19:35.746Z,37984.00
2018-04-17T12:20:35.684Z,21760.00
2018-04-17T12:21:35.622Z,19744.00
2018-04-17T12:22:35.558Z,38560.00
2018-04-17T12:23:35.497Z,48256.00